createdAt,value
2022-09-15T00:03:27.000Z,18.4
2022-09-15T00:07:00.000Z,17.5
2022-09-15T00:10:32.000Z,20.5
2022-09-15T00:14:05.000Z,18.3
2022-09-15T00:17:38.000Z,17.1
2022-09-15T00:21:10.000Z,19.2
2022-09-15T00:24:43.000Z,16.9
2022-09-15T00:28:15.000Z,15.6
2022-09-15T00:31:48.000Z,19.6
2022-09-15T00:35:20.000Z,20.8
2022-09-15T00:38:12.000Z,17.8
2022-09-15T00:41:44.000Z,22.7
2022-09-15T00:45:17.000Z,18.9
2022-09-15T00:49:14.000Z,18.3
2022-09-15T00:52:46.000Z,17.4
2022-09-15T00:56:19.000Z,16.6
2022-09-15T00:59:51.000Z,15.7
2022-09-15T01:03:24.000Z,16.4
2022-09-15T01:06:57.000Z,17.2
2022-09-15T01:10:30.000Z,17.7
2022-09-15T01:14:02.000Z,11.1
2022-09-15T01:16:54.000Z,16.5
2022-09-15T01:20:26.000Z,12.1
2022-09-15T01:23:59.000Z,17.5
2022-09-15T01:27:31.000Z,17.5
2022-09-15T01:31:08.000Z,19.2
2022-09-15T01:34:40.000Z,18.1
2022-09-15T01:38:13.000Z,18.6
2022-09-15T01:41:46.000Z,19.2
2022-09-15T01:45:18.000Z,16.4
2022-09-15T01:48:51.000Z,15.7
2022-09-15T01:52:24.000Z,18.3
2022-09-15T01:55:15.000Z,21.1
2022-09-15T01:58:48.000Z,20.4
2022-09-15T02:02:20.000Z,16.7
2022-09-15T02:05:53.000Z,18.6
2022-09-15T02:09:26.000Z,17.1
2022-09-15T02:12:58.000Z,18.7
2022-09-15T02:16:31.000Z,22
2022-09-15T02:20:04.000Z,14.3
2022-09-15T02:23:36.000Z,16.6
2022-09-15T02:27:09.000Z,13.4
2022-09-15T02:30:42.000Z,15.6
2022-09-15T02:33:33.000Z,12.3
2022-09-15T02:37:06.000Z,13.9
2022-09-15T02:40:38.000Z,13.7
2022-09-15T02:44:11.000Z,11.5
2022-09-15T02:47:44.000Z,12.8
2022-09-15T02:51:16.000Z,11.6
2022-09-15T02:54:49.000Z,8.9
2022-09-15T02:58:21.000Z,13.6
2022-09-15T03:01:54.000Z,11.8
2022-09-15T03:05:27.000Z,15.3
2022-09-15T03:08:59.000Z,13.4
2022-09-15T03:11:50.000Z,9.7
2022-09-15T03:15:23.000Z,11.2
2022-09-15T03:18:55.000Z,14.9
2022-09-15T03:22:28.000Z,10
2022-09-15T03:26:01.000Z,13
2022-09-15T03:29:33.000Z,12.6
2022-09-15T03:33:06.000Z,12.9
2022-09-15T03:36:39.000Z,12.4
2022-09-15T03:40:11.000Z,14.4
2022-09-15T03:43:44.000Z,12.8
2022-09-15T03:47:17.000Z,16.2
2022-09-15T03:50:08.000Z,14.7
2022-09-15T03:53:40.000Z,16.3
2022-09-15T03:57:13.000Z,15.5
2022-09-15T04:00:46.000Z,15.4
2022-09-15T04:04:18.000Z,15
2022-09-15T04:07:51.000Z,16.3
2022-09-15T04:11:24.000Z,15.6
2022-09-15T04:14:56.000Z,12.1
2022-09-15T04:18:29.000Z,13.7
2022-09-15T04:22:01.000Z,17.6
2022-09-15T04:25:34.000Z,17.7
2022-09-15T04:28:25.000Z,15.1
2022-09-15T04:31:58.000Z,17.6
2022-09-15T04:35:31.000Z,15.6
2022-09-15T04:39:03.000Z,17.8
2022-09-15T04:42:36.000Z,18.3
2022-09-15T04:46:08.000Z,15.2
2022-09-15T04:49:41.000Z,15.4
2022-09-15T04:53:14.000Z,14.8
2022-09-15T04:56:46.000Z,17.6
2022-09-15T05:00:19.000Z,15.9
2022-09-15T05:03:52.000Z,19
2022-09-15T05:06:43.000Z,17.4
2022-09-15T05:10:16.000Z,16.6
2022-09-15T05:13:48.000Z,15
2022-09-15T05:17:21.000Z,15.1
2022-09-15T05:20:54.000Z,17
2022-09-15T05:24:26.000Z,16.9
2022-09-15T05:27:59.000Z,15.6
2022-09-15T05:31:31.000Z,15.2
2022-09-15T05:35:04.000Z,17.6
2022-09-15T05:38:37.000Z,15.2
2022-09-15T05:42:10.000Z,16.9
2022-09-15T05:45:01.000Z,20.2
2022-09-15T05:48:34.000Z,19
2022-09-15T05:52:06.000Z,15.6
2022-09-15T05:55:39.000Z,19.1
2022-09-15T05:59:12.000Z,19
2022-09-15T06:02:44.000Z,18
2022-09-15T06:06:17.000Z,20.9
2022-09-15T06:09:50.000Z,23.1
2022-09-15T06:13:22.000Z,22.8
2022-09-15T06:16:55.000Z,23.3
2022-09-15T06:20:27.000Z,26.1
2022-09-15T06:23:18.000Z,28.1
2022-09-15T06:26:51.000Z,26.8
2022-09-15T06:30:24.000Z,22.9
2022-09-15T06:33:57.000Z,28.5
2022-09-15T06:37:29.000Z,26.6
2022-09-15T06:41:02.000Z,20.8
2022-09-15T06:44:35.000Z,32.1
2022-09-15T06:48:07.000Z,29.2
2022-09-15T06:51:50.000Z,31.6
2022-09-15T06:55:22.000Z,26.8
2022-09-15T06:58:55.000Z,25.1
2022-09-15T07:01:46.000Z,28.6
2022-09-15T07:05:19.000Z,27.3
2022-09-15T07:08:52.000Z,28.3
2022-09-15T07:12:25.000Z,26.4
2022-09-15T07:15:57.000Z,25.8
2022-09-15T07:19:30.000Z,26.6
2022-09-15T07:23:03.000Z,25.8
2022-09-15T07:26:35.000Z,23.5
2022-09-15T07:30:08.000Z,21.7
2022-09-15T07:33:41.000Z,24.5
2022-09-15T07:37:14.000Z,21.8
2022-09-15T07:40:05.000Z,18.7
2022-09-15T07:43:38.000Z,19.7
2022-09-15T07:47:10.000Z,17.8
2022-09-15T07:50:43.000Z,15.1
2022-09-15T07:54:16.000Z,19.3
2022-09-15T07:57:48.000Z,18
2022-09-15T08:01:21.000Z,24
2022-09-15T08:04:54.000Z,19
2022-09-15T08:08:26.000Z,20.3
2022-09-15T08:11:59.000Z,15.8
2022-09-15T08:15:32.000Z,18
2022-09-15T08:18:23.000Z,17
2022-09-15T08:21:55.000Z,16.6
2022-09-15T08:25:28.000Z,12.1
2022-09-15T08:29:01.000Z,13.2
2022-09-15T08:32:33.000Z,17.8
2022-09-15T08:36:06.000Z,14.1
2022-09-15T08:39:38.000Z,17.1
2022-09-15T08:43:11.000Z,15.9
2022-09-15T08:46:44.000Z,14.5
2022-09-15T08:50:17.000Z,11.8
2022-09-15T08:53:49.000Z,12.2
2022-09-15T08:56:40.000Z,11.1
2022-09-15T09:00:13.000Z,11.7
2022-09-15T09:03:46.000Z,9.9
2022-09-15T09:07:18.000Z,10.5
2022-09-15T09:10:51.000Z,9.4
2022-09-15T09:14:24.000Z,9.3
2022-09-15T09:17:57.000Z,13.3
2022-09-15T09:21:31.000Z,11.5
2022-09-15T09:25:03.000Z,12.1
2022-09-15T09:28:52.000Z,9.2
2022-09-15T09:32:25.000Z,8.8
2022-09-15T09:35:16.000Z,9.1
2022-09-15T09:38:49.000Z,12.8
2022-09-15T09:42:21.000Z,9.4
2022-09-15T09:45:54.000Z,11.2
2022-09-15T09:49:27.000Z,10
2022-09-15T09:52:59.000Z,10.8
2022-09-15T09:56:32.000Z,11.3
2022-09-15T10:00:04.000Z,8.8
2022-09-15T10:03:37.000Z,10.6
2022-09-15T10:07:10.000Z,8
2022-09-15T10:10:43.000Z,7.8
2022-09-15T10:13:34.000Z,7.4
2022-09-15T10:17:06.000Z,8.9
2022-09-15T10:20:39.000Z,7.9
2022-09-15T10:24:12.000Z,7.2
2022-09-15T10:27:58.000Z,9
2022-09-15T10:31:31.000Z,9.3
2022-09-15T10:35:03.000Z,7.7
2022-09-15T10:38:36.000Z,8.8
2022-09-15T10:42:09.000Z,6.2
2022-09-15T10:45:42.000Z,9.3
2022-09-15T10:49:15.000Z,6.5
2022-09-15T10:52:06.000Z,7.5
2022-09-15T10:55:38.000Z,6.8
2022-09-15T10:59:18.000Z,7.7
2022-09-15T11:02:51.000Z,6.3
2022-09-15T11:06:23.000Z,7
2022-09-15T11:09:56.000Z,6.7
2022-09-15T11:13:29.000Z,6.8
2022-09-15T11:17:01.000Z,5.6
2022-09-15T11:20:34.000Z,7.9
2022-09-15T11:24:06.000Z,5.8
2022-09-15T11:27:39.000Z,5
2022-09-15T11:30:30.000Z,7.6
2022-09-15T11:34:03.000Z,4.6
2022-09-15T11:37:35.000Z,6.3
2022-09-15T11:41:08.000Z,6.6
2022-09-15T11:44:41.000Z,6.3
2022-09-15T11:48:13.000Z,6.2
2022-09-15T11:51:46.000Z,5.8
2022-09-15T11:55:19.000Z,6.8
2022-09-15T11:58:52.000Z,7.5
2022-09-15T12:02:24.000Z,6.6
2022-09-15T12:05:57.000Z,6.3
2022-09-15T12:08:48.000Z,4
2022-09-15T12:12:21.000Z,6.5
2022-09-15T12:15:56.000Z,5.1
2022-09-15T12:19:29.000Z,4.1
2022-09-15T12:23:02.000Z,5.6
2022-09-15T12:26:34.000Z,3.2
2022-09-15T12:30:07.000Z,5.5
2022-09-15T12:33:39.000Z,4.3
2022-09-15T12:37:12.000Z,4.4
2022-09-15T12:40:45.000Z,5.3
2022-09-15T12:44:18.000Z,4.6
2022-09-15T12:47:09.000Z,4.4
2022-09-15T12:50:46.000Z,4.7
2022-09-15T12:54:18.000Z,3.9
2022-09-15T12:57:51.000Z,5.2
2022-09-15T13:01:24.000Z,3.9
2022-09-15T13:04:56.000Z,3
2022-09-15T13:08:29.000Z,2.6
2022-09-15T13:12:02.000Z,3.4
2022-09-15T13:15:34.000Z,3
2022-09-15T13:19:07.000Z,4.6
2022-09-15T13:22:40.000Z,2.1
2022-09-15T13:25:31.000Z,4.7
2022-09-15T13:29:04.000Z,3.1
2022-09-15T13:32:36.000Z,3.6
2022-09-15T13:40:42.000Z,2.5
2022-09-15T13:44:14.000Z,3.2
2022-09-15T13:47:47.000Z,2.5
2022-09-15T13:51:20.000Z,3.1
2022-09-15T13:54:53.000Z,3.3
2022-09-15T13:58:25.000Z,3.6
2022-09-15T14:02:28.000Z,3.7
2022-09-15T14:05:19.000Z,3.4
2022-09-15T14:08:58.000Z,3
2022-09-15T14:12:31.000Z,4
2022-09-15T14:16:03.000Z,3.1
2022-09-15T14:19:37.000Z,4.2
2022-09-15T14:23:10.000Z,2.4
2022-09-15T14:26:43.000Z,4.3
2022-09-15T14:30:15.000Z,3.3
2022-09-15T14:33:48.000Z,3.9
2022-09-15T14:37:21.000Z,2.3
2022-09-15T14:40:53.000Z,4.9
2022-09-15T14:43:45.000Z,4
2022-09-15T14:47:47.000Z,3.4
2022-09-15T14:51:20.000Z,6.1
2022-09-15T14:54:53.000Z,5.3
2022-09-15T14:58:25.000Z,4.5
2022-09-15T15:01:58.000Z,3.7
2022-09-15T15:05:31.000Z,3.7
2022-09-15T15:09:03.000Z,4.6
2022-09-15T15:12:36.000Z,4.3
2022-09-15T15:16:09.000Z,3.4
2022-09-15T15:19:41.000Z,2.9
2022-09-15T15:22:33.000Z,2.2
2022-09-15T15:26:05.000Z,2.4
2022-09-15T15:29:38.000Z,3.2
2022-09-15T15:33:11.000Z,5.7
2022-09-15T15:36:45.000Z,4.7
2022-09-15T15:40:17.000Z,5
2022-09-15T15:43:50.000Z,5.4
2022-09-15T15:47:22.000Z,4.7
2022-09-15T15:50:55.000Z,2.5
2022-09-15T15:54:28.000Z,4.4
2022-09-15T15:58:00.000Z,4.9
2022-09-15T16:00:51.000Z,5.4
2022-09-15T16:04:24.000Z,2.3
2022-09-15T16:07:57.000Z,3.5
2022-09-15T16:11:29.000Z,4.1
2022-09-15T16:15:02.000Z,3.7
2022-09-15T16:18:35.000Z,6.4
2022-09-15T16:22:08.000Z,6.2
2022-09-15T16:25:40.000Z,6.5
2022-09-15T16:29:13.000Z,5
2022-09-15T16:32:45.000Z,4.9
2022-09-15T16:36:18.000Z,5.4
2022-09-15T16:39:09.000Z,4
2022-09-15T16:42:42.000Z,3.6
2022-09-15T16:46:14.000Z,3.3
2022-09-15T16:49:47.000Z,4.4
2022-09-15T16:53:30.000Z,5.9
2022-09-15T16:57:02.000Z,3.9
2022-09-15T17:00:35.000Z,2.8
2022-09-15T17:04:08.000Z,3.1
2022-09-15T17:07:46.000Z,2.6
2022-09-15T17:11:19.000Z,4.2
2022-09-15T17:14:51.000Z,7
2022-09-15T17:17:43.000Z,4.6
2022-09-15T17:21:15.000Z,5.2
2022-09-15T17:24:48.000Z,2.7
2022-09-15T17:28:21.000Z,4.1
2022-09-15T17:31:53.000Z,10.6
2022-09-15T17:35:26.000Z,4.6
2022-09-15T17:38:58.000Z,6.6
2022-09-15T17:42:31.000Z,4.9
2022-09-15T17:46:04.000Z,4.3
2022-09-15T17:49:37.000Z,3.3
2022-09-15T17:53:09.000Z,7.9
2022-09-15T17:56:01.000Z,5.8
2022-09-15T17:59:33.000Z,4.3
2022-09-15T18:03:06.000Z,5.7
2022-09-15T18:06:38.000Z,4.1
2022-09-15T18:10:11.000Z,5.2
2022-09-15T18:13:44.000Z,5.4
2022-09-15T18:17:16.000Z,6.5
2022-09-15T18:20:49.000Z,6.2
2022-09-15T18:24:21.000Z,6.4
2022-09-15T18:27:54.000Z,6
2022-09-15T18:31:27.000Z,8.3
2022-09-15T18:34:18.000Z,7.5
2022-09-15T18:37:51.000Z,8
2022-09-15T18:41:23.000Z,6.4
2022-09-15T18:44:56.000Z,7.7
2022-09-15T18:48:29.000Z,8.7
2022-09-15T18:52:01.000Z,9
2022-09-15T18:55:34.000Z,6.5
2022-09-15T18:59:07.000Z,8.8
2022-09-15T19:02:43.000Z,6.3
2022-09-15T19:06:15.000Z,9
2022-09-15T19:09:48.000Z,6
2022-09-15T19:12:40.000Z,7.9
2022-09-15T19:16:13.000Z,7.9
2022-09-15T19:19:51.000Z,7.1
2022-09-15T19:23:26.000Z,7
2022-09-15T19:26:58.000Z,12
2022-09-15T19:30:31.000Z,7.4
2022-09-15T19:34:03.000Z,7.5
2022-09-15T19:37:36.000Z,5.5
2022-09-15T19:41:09.000Z,6.7
2022-09-15T19:44:41.000Z,7.9
2022-09-15T19:48:14.000Z,8
2022-09-15T19:51:05.000Z,7.5
2022-09-15T19:54:38.000Z,6.6
2022-09-15T19:58:11.000Z,7.1
2022-09-15T20:01:43.000Z,8.3
2022-09-15T20:05:16.000Z,5.9
2022-09-15T20:08:49.000Z,6.1
2022-09-15T20:12:22.000Z,8
2022-09-15T20:15:54.000Z,4.9
2022-09-15T20:19:27.000Z,6
2022-09-15T20:22:59.000Z,4.7
2022-09-15T20:26:32.000Z,5.4
2022-09-15T20:29:23.000Z,6.3
2022-09-15T20:32:56.000Z,5.9
2022-09-15T20:36:28.000Z,5.2
2022-09-15T20:40:01.000Z,8.6
2022-09-15T20:43:34.000Z,5
2022-09-15T20:47:06.000Z,7
2022-09-15T20:50:39.000Z,7.3
2022-09-15T20:54:12.000Z,7
2022-09-15T20:57:44.000Z,8.1
2022-09-15T21:01:17.000Z,9.4
2022-09-15T21:04:50.000Z,10.1
2022-09-15T21:07:41.000Z,6.1
2022-09-15T21:11:14.000Z,6.2
2022-09-15T21:14:46.000Z,7.9
2022-09-15T21:18:19.000Z,9.6
2022-09-15T21:21:52.000Z,7.8
2022-09-15T21:25:24.000Z,8
2022-09-15T21:28:57.000Z,6.2
2022-09-15T21:32:29.000Z,7.1
2022-09-15T21:36:02.000Z,11.5
2022-09-15T21:39:35.000Z,8.3
2022-09-15T21:43:07.000Z,9.2
2022-09-15T21:45:58.000Z,5.7
2022-09-15T21:49:31.000Z,8.2
2022-09-15T21:53:04.000Z,5.7
2022-09-15T21:56:36.000Z,8.6
2022-09-15T22:00:09.000Z,7
2022-09-15T22:03:42.000Z,8.4
2022-09-15T22:07:14.000Z,6.1
2022-09-15T22:10:47.000Z,7.7
2022-09-15T22:14:20.000Z,5.7
2022-09-15T22:17:52.000Z,6.6
2022-09-15T22:21:25.000Z,9.3
2022-09-15T22:24:16.000Z,5.4
2022-09-15T22:27:49.000Z,6.3
2022-09-15T22:31:21.000Z,6.6
2022-09-15T22:34:54.000Z,8
2022-09-15T22:38:29.000Z,7.5
2022-09-15T22:42:01.000Z,5.5
2022-09-15T22:45:34.000Z,8.6
2022-09-15T22:49:07.000Z,7
2022-09-15T22:52:39.000Z,8.4
2022-09-15T22:56:12.000Z,7.2
2022-09-15T22:59:45.000Z,9.2
2022-09-15T23:02:36.000Z,11.1
2022-09-15T23:06:08.000Z,9.4
2022-09-15T23:09:41.000Z,8.4
2022-09-15T23:13:14.000Z,8.1
2022-09-15T23:16:46.000Z,10.7
2022-09-15T23:20:19.000Z,10.3
2022-09-15T23:23:51.000Z,8.9
2022-09-15T23:27:24.000Z,10
2022-09-15T23:30:57.000Z,12.2
2022-09-15T23:34:29.000Z,9.8
2022-09-15T23:38:02.000Z,9
2022-09-15T23:40:53.000Z,10.8
2022-09-15T23:44:25.000Z,10.1
2022-09-15T23:47:58.000Z,9.9
2022-09-15T23:51:31.000Z,10.2
2022-09-15T23:55:03.000Z,11.8
2022-09-15T23:58:36.000Z,14.3
